Time;durP1;ratioP1;P1;durP2;ratioP2;P2;SDS_P1;SDS_P2;PMS_P1;PMS_P2;Temp;Humidity;BMP_temperature;BMP_pressure;BME280_temperature;BME280_humidity;BME280_pressure;Samples;Min_cycle;Max_cycle;Signal;HPM_P1;HPM_P2
2023/01/16 00:01:11;;;;;;;6.40;0.83;;;;;1.30;92705.00;;;;7400033;19;20189;-76
2023/01/16 00:03:45;;;;;;;1.43;0.70;;;;;1.30;92698.00;;;;7396703;19;20172;-78
2023/01/16 00:06:13;;;;;;;1.10;0.60;;;;;1.20;92689.00;;;;7399115;19;20146;-75
2023/01/16 00:08:54;;;;;;;2.20;0.77;;;;;1.40;92692.00;;;;7396979;19;20231;-75
2023/01/16 00:11:28;;;;;;;3.03;0.80;;;;;1.20;92686.00;;;;7399384;19;20140;-75
2023/01/16 00:14:02;;;;;;;2.47;0.90;;;;;1.40;92685.00;;;;7397326;19;20603;-75
2023/01/16 00:16:37;;;;;;;4.23;1.03;;;;;1.20;92682.00;;;;7392571;19;20177;-76
2023/01/16 00:19:05;;;;;;;1.50;0.70;;;;;1.30;92671.00;;;;7397468;19;20117;-75
2023/01/16 00:21:40;;;;;;;2.47;0.57;;;;;1.20;92664.00;;;;7399507;19;20153;-75
2023/01/16 00:24:14;;;;;;;5.47;0.80;;;;;1.10;92665.00;;;;7398148;19;20614;-75
2023/01/16 00:26:51;;;;;;;4.37;1.07;;;;;1.00;92666.00;;;;7397686;19;20169;-75
2023/01/16 00:29:18;;;;;;;5.80;1.07;;;;;1.00;92661.00;;;;7398206;19;20136;-76
2023/01/16 00:31:54;;;;;;;4.53;1.00;;;;;0.80;92655.00;;;;7397350;19;20142;-75
2023/01/16 00:34:23;;;;;;;2.67;0.80;;;;;0.70;92656.00;;;;7397669;19;20506;-75
2023/01/16 00:36:52;;;;;;;2.43;0.90;;;;;0.60;92658.00;;;;7396988;19;20487;-75
2023/01/16 00:39:27;;;;;;;4.37;1.00;;;;;0.70;92652.00;;;;7398313;19;20125;-76
2023/01/16 00:42:02;;;;;;;4.47;1.17;;;;;0.90;92646.00;;;;7395747;19;20203;-75
2023/01/16 00:44:37;;;;;;;2.60;0.83;;;;;0.70;92642.00;;;;7397345;19;20139;-75
2023/01/16 00:47:11;;;;;;;2.93;0.97;;;;;0.60;92629.00;;;;7395661;19;20141;-75
2023/01/16 00:49:45;;;;;;;3.87;0.90;;;;;0.50;92625.00;;;;7397710;19;20147;-75
2023/01/16 00:52:13;;;;;;;5.53;1.00;;;;;0.40;92617.00;;;;7398445;19;20600;-75
2023/01/16 00:54:46;;;;;;;1.27;0.57;;;;;0.30;92631.00;;;;7398873;19;20137;-75
2023/01/16 00:57:20;;;;;;;2.67;0.93;;;;;0.30;92627.00;;;;7397180;19;20133;-75
2023/01/16 00:59:54;;;;;;;4.47;1.00;;;;;0.10;92616.00;;;;7396987;19;20603;-75
2023/01/16 01:02:24;;;;;;;2.70;1.07;;;;;0.00;92612.00;;;;7396321;19;20173;-75
2023/01/16 01:04:58;;;;;;;2.57;0.70;;;;;0.00;92594.00;;;;7396569;19;20606;-75
2023/01/16 01:07:26;;;;;;;8.90;1.50;;;;;-0.20;92596.00;;;;7390883;19;20133;-75
2023/01/16 01:10:06;;;;;;;4.70;1.17;;;;;-0.20;92583.00;;;;7389265;19;20141;-76
2023/01/16 01:12:40;;;;;;;9.07;1.10;;;;;-0.30;92586.00;;;;7397059;19;20153;-75
2023/01/16 01:15:09;;;;;;;7.43;0.93;;;;;-0.40;92585.00;;;;7393283;19;20163;-75
2023/01/16 01:17:45;;;;;;;6.50;1.67;;;;;-0.50;92576.00;;;;7393153;19;20173;-75
2023/01/16 01:20:12;;;;;;;7.77;1.37;;;;;-0.50;92571.00;;;;7394828;19;20475;-75
2023/01/16 01:22:46;;;;;;;5.40;0.83;;;;;-0.60;92575.00;;;;7393737;19;20610;-75
2023/01/16 01:25:24;;;;;;;6.13;1.03;;;;;-0.80;92573.00;;;;7393035;19;20168;-75
2023/01/16 01:27:52;;;;;;;4.10;1.63;;;;;-0.50;92572.00;;;;7392777;19;20481;-75
2023/01/16 01:30:26;;;;;;;8.00;1.07;;;;;-0.60;92563.00;;;;7401976;19;20136;-76
2023/01/16 01:33:00;;;;;;;4.87;1.10;;;;;-0.70;92548.00;;;;7402707;19;20630;-76
2023/01/16 01:35:27;;;;;;;5.20;1.17;;;;;-0.70;92550.00;;;;7404305;19;20129;-77
2023/01/16 01:38:01;;;;;;;2.67;0.97;;;;;-0.70;92551.00;;;;7401483;19;20443;-75
2023/01/16 01:40:28;;;;;;;1.97;1.00;;;;;-0.60;92552.00;;;;7403845;19;20611;-76
2023/01/16 01:43:10;;;;;;;6.03;0.97;;;;;-0.90;92541.00;;;;7403005;19;20120;-75
2023/01/16 01:45:38;;;;;;;2.67;1.00;;;;;-0.90;92531.00;;;;7405003;19;20148;-75
2023/01/16 01:48:21;;;;;;;6.07;1.10;;;;;-0.90;92520.00;;;;7402359;19;20143;-75
2023/01/16 01:51:14;;;;;;;2.50;0.83;;;;;-1.00;92518.00;;;;7404354;19;20588;-74
2023/01/16 01:54:01;;;;;;;3.50;0.93;;;;;-0.80;92503.00;;;;7404002;19;20576;-75
2023/01/16 01:56:31;;;;;;;1.30;0.90;;;;;-0.60;92501.00;;;;7402228;19;20133;-76
2023/01/16 01:59:17;;;;;;;7.23;1.27;;;;;-0.70;92482.00;;;;7404756;19;20188;-74
2023/01/16 02:01:44;;;;;;;2.13;1.00;;;;;-0.60;92485.00;;;;7402963;19;20124;-78
2023/01/16 02:04:23;;;;;;;8.47;1.47;;;;;-0.50;92488.00;;;;7403886;19;20133;-79
2023/01/16 02:06:57;;;;;;;2.73;0.93;;;;;-0.40;92476.00;;;;7402810;19;20456;-79
2023/01/16 02:09:39;;;;;;;11.27;1.20;;;;;-0.30;92469.00;;;;7400724;19;20141;-78
2023/01/16 02:12:16;;;;;;;6.33;1.40;;;;;-0.20;92467.00;;;;7402772;19;20153;-77
2023/01/16 02:14:46;;;;;;;4.27;1.37;;;;;-0.20;92450.00;;;;7403429;19;20604;-80
2023/01/16 02:20:18;;;;;;;5.30;1.40;;;;;-0.10;92439.00;;;;7403547;19;20131;-78
2023/01/16 02:23:18;;;;;;;9.00;1.93;;;;;0.00;92434.00;;;;7401627;19;20152;-78
2023/01/16 02:26:12;;;;;;;11.20;1.50;;;;;-0.20;92425.00;;;;7403454;19;20479;-78
2023/01/16 02:29:02;;;;;;;5.17;1.17;;;;;-0.20;92419.00;;;;7400944;19;20193;-77
2023/01/16 02:31:33;;;;;;;8.07;1.50;;;;;-0.20;92412.00;;;;7403294;19;20480;-78
2023/01/16 02:34:28;;;;;;;6.33;1.47;;;;;-0.10;92403.00;;;;7403221;19;20156;-78
2023/01/16 02:37:29;;;;;;;4.97;1.30;;;;;0.00;92407.00;;;;7401913;19;20137;-77
2023/01/16 02:40:17;;;;;;;1.67;0.87;;;;;0.00;92397.00;;;;7400809;19;20162;-78
2023/01/16 02:43:24;;;;;;;1.57;1.00;;;;;0.20;92386.00;;;;7401970;19;20137;-78
2023/01/16 02:46:18;;;;;;;3.40;1.33;;;;;0.20;92371.00;;;;7403485;19;20132;-78
2023/01/16 02:49:09;;;;;;;5.83;1.30;;;;;0.10;92361.00;;;;7401753;19;20595;-79
2023/01/16 02:51:57;;;;;;;9.37;1.30;;;;;0.20;92357.00;;;;7400907;19;20611;-79
2023/01/16 02:54:45;;;;;;;2.13;1.17;;;;;0.30;92352.00;;;;7402364;19;20133;-79
2023/01/16 02:57:20;;;;;;;3.43;1.10;;;;;0.30;92359.00;;;;7399018;19;20236;-78
2023/01/16 02:59:55;;;;;;;4.87;1.40;;;;;0.40;92350.00;;;;7400193;19;20129;-79
2023/01/16 03:02:29;;;;;;;2.90;1.07;;;;;0.30;92341.00;;;;7399533;19;20168;-79
2023/01/16 03:05:03;;;;;;;3.40;1.20;;;;;0.40;92345.00;;;;7402699;19;20125;-79
2023/01/16 03:08:09;;;;;;;5.50;1.17;;;;;0.60;92336.00;;;;7400190;19;20132;-79
2023/01/16 03:11:02;;;;;;;3.07;1.40;;;;;0.50;92328.00;;;;7400664;19;20156;-80
2023/01/16 03:14:08;;;;;;;7.10;1.37;;;;;0.40;92311.00;;;;7400651;19;20147;-80
2023/01/16 03:17:08;;;;;;;3.33;1.33;;;;;0.40;92315.00;;;;7401027;19;20136;-79
2023/01/16 03:20:12;;;;;;;5.00;1.47;;;;;0.50;92295.00;;;;7401348;19;20129;-80
2023/01/16 03:23:09;;;;;;;4.00;0.90;;;;;0.50;92284.00;;;;7402074;19;20595;-80
2023/01/16 03:26:04;;;;;;;4.90;1.40;;;;;0.40;92266.00;;;;7399256;19;20140;-79
2023/01/16 03:28:55;;;;;;;4.73;1.40;;;;;0.50;92263.00;;;;7400690;19;20204;-81
2023/01/16 03:31:52;;;;;;;4.20;1.50;;;;;0.40;92252.00;;;;7398800;19;20152;-79
2023/01/16 03:34:40;;;;;;;5.77;1.20;;;;;0.40;92251.00;;;;7400919;19;20167;-79
2023/01/16 03:37:40;;;;;;;2.23;1.10;;;;;0.40;92237.00;;;;7400375;19;20217;-81
2023/01/16 03:40:27;;;;;;;2.80;0.80;;;;;0.30;92240.00;;;;7401538;19;20195;-80
2023/01/16 03:43:21;;;;;;;2.87;0.80;;;;;0.50;92228.00;;;;7398811;19;20159;-80
2023/01/16 03:45:54;;;;;;;6.67;1.23;;;;;0.60;92223.00;;;;7401559;19;20129;-79
2023/01/16 03:48:52;;;;;;;4.17;0.90;;;;;0.60;92221.00;;;;7401873;19;20184;-79
2023/01/16 03:51:31;;;;;;;5.30;1.17;;;;;0.60;92214.00;;;;7400898;19;20475;-82
2023/01/16 03:54:04;;;;;;;3.40;1.10;;;;;0.80;92210.00;;;;7399039;19;20222;-81
2023/01/16 03:56:50;;;;;;;5.60;1.23;;;;;0.60;92202.00;;;;7401112;19;20142;-83
2023/01/16 03:59:27;;;;;;;3.40;1.10;;;;;0.60;92197.00;;;;7399401;19;20152;-81
2023/01/16 04:01:58;;;;;;;9.17;1.70;;;;;0.60;92191.00;;;;7398701;19;20543;-79
2023/01/16 04:04:55;;;;;;;3.87;1.10;;;;;0.70;92183.00;;;;7398339;19;20133;-82
2023/01/16 04:07:37;;;;;;;2.87;1.23;;;;;0.70;92171.00;;;;7399787;19;20598;-81
2023/01/16 04:10:22;;;;;;;6.33;1.10;;;;;0.60;92167.00;;;;7399391;19;20223;-80
2023/01/16 04:13:09;;;;;;;2.40;1.03;;;;;0.60;92169.00;;;;7398958;19;20631;-80
2023/01/16 04:15:48;;;;;;;1.77;1.10;;;;;0.80;92153.00;;;;7398824;19;20598;-81
2023/01/16 04:18:27;;;;;;;2.63;1.10;;;;;0.80;92134.00;;;;7399366;19;20143;-80
2023/01/16 04:20:55;;;;;;;2.67;1.03;;;;;0.70;92121.00;;;;7398502;19;20499;-82
2023/01/16 04:23:31;;;;;;;2.53;1.27;;;;;0.70;92107.00;;;;7399256;19;20141;-79
2023/01/16 04:26:04;;;;;;;2.37;0.90;;;;;0.60;92107.00;;;;7398542;19;20212;-80
2023/01/16 04:28:32;;;;;;;3.70;0.80;;;;;0.60;92099.00;;;;7398519;19;20659;-81
2023/01/16 04:30:59;;;;;;;5.20;1.10;;;;;0.60;92094.00;;;;7397872;19;20137;-78
2023/01/16 04:33:33;;;;;;;4.00;0.70;;;;;0.60;92081.00;;;;7399817;19;20190;-80
2023/01/16 04:36:03;;;;;;;3.77;1.00;;;;;0.70;92072.00;;;;7399625;19;20133;-81
2023/01/16 04:38:32;;;;;;;2.70;0.80;;;;;0.40;92065.00;;;;7395985;19;20619;-81
2023/01/16 04:41:07;;;;;;;7.07;1.17;;;;;0.50;92058.00;;;;7398472;19;20150;-81
2023/01/16 04:43:41;;;;;;;8.00;1.20;;;;;0.40;92050.00;;;;7398078;19;20152;-81
2023/01/16 04:46:08;;;;;;;3.00;1.20;;;;;0.30;92028.00;;;;7398119;19;20200;-80
2023/01/16 04:48:42;;;;;;;2.20;0.93;;;;;0.30;92021.00;;;;7399917;19;20129;-80
2023/01/16 04:51:09;;;;;;;5.00;1.40;;;;;0.20;92013.00;;;;7398735;19;20136;-81
2023/01/16 04:53:44;;;;;;;4.77;1.10;;;;;0.10;92016.00;;;;7399374;19;20606;-81
2023/01/16 04:56:14;;;;;;;4.80;1.10;;;;;0.00;92000.00;;;;7400097;19;20129;-81
2023/01/16 04:58:50;;;;;;;6.27;1.50;;;;;-0.10;92005.00;;;;7395777;19;20152;-79
2023/01/16 05:01:21;;;;;;;5.67;1.27;;;;;-0.10;91991.00;;;;7398566;19;20648;-80
2023/01/16 05:03:56;;;;;;;1.70;0.90;;;;;-0.10;91989.00;;;;7396704;19;20168;-81
2023/01/16 05:06:24;;;;;;;2.70;1.10;;;;;-0.20;91989.00;;;;7403927;19;20133;-80
2023/01/16 05:09:05;;;;;;;2.33;1.10;;;;;-0.20;91977.00;;;;7404605;19;20535;-81
2023/01/16 05:11:34;;;;;;;3.53;1.53;;;;;-0.20;91971.00;;;;7405945;19;20156;-81
2023/01/16 05:14:10;;;;;;;7.27;1.07;;;;;-0.40;91964.00;;;;7405044;19;20176;-81
2023/01/16 05:16:44;;;;;;;8.10;1.20;;;;;-0.10;91954.00;;;;7406034;19;20614;-81
2023/01/16 05:19:12;;;;;;;3.17;0.97;;;;;-0.40;91940.00;;;;7401170;19;20520;-83
2023/01/16 05:21:46;;;;;;;4.00;1.23;;;;;-0.50;91932.00;;;;7404541;19;20147;-82
2023/01/16 05:24:20;;;;;;;3.90;1.10;;;;;-0.40;91917.00;;;;7407248;19;20148;-80
2023/01/16 05:26:54;;;;;;;4.30;1.20;;;;;-0.60;91913.00;;;;7404747;19;20151;-82
2023/01/16 05:29:28;;;;;;;5.13;1.10;;;;;-0.50;91906.00;;;;7404476;19;20642;-82
2023/01/16 05:31:56;;;;;;;2.27;1.00;;;;;-0.50;91904.00;;;;7404438;19;20168;-82
2023/01/16 05:34:30;;;;;;;5.33;1.10;;;;;-0.50;91894.00;;;;7404708;19;20161;-83
2023/01/16 05:36:57;;;;;;;6.73;1.67;;;;;-0.50;91894.00;;;;7404763;19;20129;-83
2023/01/16 05:39:25;;;;;;;1.70;0.93;;;;;-0.80;91877.00;;;;7400177;19;20173;-82
2023/01/16 05:41:59;;;;;;;3.17;1.40;;;;;-0.70;91865.00;;;;7403128;19;20136;-83
2023/01/16 05:44:35;;;;;;;5.27;1.30;;;;;-0.80;91862.00;;;;7405522;19;20162;-84
2023/01/16 05:47:02;;;;;;;3.80;1.67;;;;;-0.70;91846.00;;;;7404250;19;20140;-85
2023/01/16 05:49:36;;;;;;;3.03;1.13;;;;;-0.70;91835.00;;;;7402117;19;20133;-84
2023/01/16 05:52:03;;;;;;;5.43;1.30;;;;;-0.70;91846.00;;;;7403743;19;20125;-84
2023/01/16 05:54:39;;;;;;;5.57;1.30;;;;;-0.80;91829.00;;;;7405156;19;20142;-84
2023/01/16 05:57:07;;;;;;;2.60;1.43;;;;;-0.70;91822.00;;;;7402011;19;20129;-84
2023/01/16 05:59:45;;;;;;;4.47;1.10;;;;;-0.80;91827.00;;;;7403352;19;20683;-80
2023/01/16 06:02:20;;;;;;;3.47;1.10;;;;;-0.70;91817.00;;;;7401946;19;20499;-81
2023/01/16 06:04:54;;;;;;;3.20;1.00;;;;;-0.70;91791.00;;;;7402368;19;20152;-82
2023/01/16 06:07:38;;;;;;;3.80;1.20;;;;;-0.70;91789.00;;;;7403620;19;20133;-81
2023/01/16 06:10:13;;;;;;;4.53;1.40;;;;;-0.70;91776.00;;;;7399588;19;20635;-81
2023/01/16 06:12:48;;;;;;;1.37;1.10;;;;;-0.60;91769.00;;;;7400772;19;20153;-82
2023/01/16 06:15:15;;;;;;;4.13;1.53;;;;;-0.70;91775.00;;;;7400503;19;20156;-82
2023/01/16 06:17:52;;;;;;;2.07;1.40;;;;;-0.60;91752.00;;;;7402313;19;20488;-82
2023/01/16 06:20:26;;;;;;;3.80;1.70;;;;;-0.60;91757.00;;;;7403377;19;20132;-80
2023/01/16 06:23:02;;;;;;;3.33;1.53;;;;;-0.70;91745.00;;;;7403446;19;20133;-82
2023/01/16 06:25:29;;;;;;;3.60;1.53;;;;;-0.70;91736.00;;;;7401526;19;20167;-81
2023/01/16 06:28:04;;;;;;;6.13;1.43;;;;;-0.60;91729.00;;;;7401076;19;20214;-82
2023/01/16 06:30:42;;;;;;;4.83;1.30;;;;;-0.60;91717.00;;;;7403261;19;20200;-82
2023/01/16 06:33:16;;;;;;;3.37;1.60;;;;;-0.60;91713.00;;;;7401242;19;20480;-82
2023/01/16 06:35:50;;;;;;;7.53;1.87;;;;;-0.50;91707.00;;;;7402265;19;20149;-82
2023/01/16 06:38:18;;;;;;;3.87;1.77;;;;;-0.60;91702.00;;;;7400464;19;20133;-83
2023/01/16 06:40:55;;;;;;;4.70;1.50;;;;;-0.60;91704.00;;;;7402664;19;20179;-81
2023/01/16 06:43:29;;;;;;;2.90;1.50;;;;;-0.50;91708.00;;;;7402696;19;20143;-78
2023/01/16 06:46:03;;;;;;;2.77;1.57;;;;;-0.60;91712.00;;;;7401780;19;20209;-83
2023/01/16 06:48:41;;;;;;;5.23;1.57;;;;;-0.50;91709.00;;;;7402692;19;20150;-84
2023/01/16 06:51:14;;;;;;;5.10;1.80;;;;;-0.50;91695.00;;;;7404566;19;20141;-82
2023/01/16 06:53:49;;;;;;;3.93;1.77;;;;;-0.50;91698.00;;;;7402481;19;20537;-83
2023/01/16 06:56:24;;;;;;;4.23;1.87;;;;;-0.50;91692.00;;;;7401856;19;20619;-83
2023/01/16 06:58:51;;;;;;;3.53;1.73;;;;;-0.50;91693.00;;;;7401787;19;20137;-83
2023/01/16 07:01:26;;;;;;;2.90;1.80;;;;;-0.50;91674.00;;;;7399683;19;20169;-82
2023/01/16 07:03:53;;;;;;;2.90;1.73;;;;;-0.50;91661.00;;;;7398760;19;20182;-83
2023/01/16 07:06:27;;;;;;;3.87;2.10;;;;;-0.50;91654.00;;;;7402234;19;20184;-81
2023/01/16 07:09:02;;;;;;;3.10;1.80;;;;;-0.40;91639.00;;;;7399871;19;20181;-81
2023/01/16 07:11:42;;;;;;;5.27;2.00;;;;;-0.40;91644.00;;;;7401019;19;20466;-83
2023/01/16 07:23:31;;;;;;;5.17;2.00;;;;;-0.40;91622.00;;;;7401930;19;20188;-83
2023/01/16 07:26:03;;;;;;;6.47;1.93;;;;;-0.30;91621.00;;;;7397025;19;20600;-81
2023/01/16 07:28:37;;;;;;;5.77;2.07;;;;;-0.30;91615.00;;;;7395985;19;20697;-81
2023/01/16 07:31:06;;;;;;;4.23;1.90;;;;;-0.30;91605.00;;;;7396619;19;20156;-82
2023/01/16 07:33:41;;;;;;;2.03;1.40;;;;;-0.20;91606.00;;;;7398166;19;20168;-82
2023/01/16 07:36:15;;;;;;;7.67;1.97;;;;;-0.40;91590.00;;;;7398360;19;20162;-82
2023/01/16 07:38:42;;;;;;;7.17;2.47;;;;;-0.40;91586.00;;;;7396157;19;20676;-81
2023/01/16 07:41:16;;;;;;;3.90;2.10;;;;;-0.50;91583.00;;;;7398701;19;20133;-83
2023/01/16 07:43:50;;;;;;;3.60;2.10;;;;;-0.40;91579.00;;;;7398483;19;20164;-79
2023/01/16 07:46:25;;;;;;;3.07;1.70;;;;;-0.40;91565.00;;;;7397633;19;20153;-82
2023/01/16 07:48:55;;;;;;;3.67;1.77;;;;;-0.30;91564.00;;;;7397971;19;20278;-81
2023/01/16 07:51:29;;;;;;;4.10;2.00;;;;;-0.30;91556.00;;;;7396608;19;20143;-83
2023/01/16 07:54:03;;;;;;;2.73;2.10;;;;;-0.20;91545.00;;;;7397554;19;20886;-81
2023/01/16 07:56:30;;;;;;;3.50;1.90;;;;;-0.20;91557.00;;;;7396274;19;20136;-81
2023/01/16 07:59:04;;;;;;;4.43;2.30;;;;;-0.20;91547.00;;;;7394063;19;20204;-82
2023/01/16 08:01:39;;;;;;;3.33;2.17;;;;;-0.10;91542.00;;;;7395333;19;20256;-81
2023/01/16 08:04:06;;;;;;;5.13;2.10;;;;;0.00;91536.00;;;;7397179;19;20125;-82
2023/01/16 08:06:44;;;;;;;2.27;1.90;;;;;-0.10;91529.00;;;;7395973;19;20150;-80
2023/01/16 08:09:18;;;;;;;3.83;2.40;;;;;0.00;91531.00;;;;7394463;19;20148;-82
2023/01/16 08:11:53;;;;;;;4.33;2.30;;;;;0.00;91516.00;;;;7398630;19;20231;-81
2023/01/16 08:14:20;;;;;;;5.23;2.50;;;;;-0.10;91513.00;;;;7394377;19;20124;-82
2023/01/16 08:16:55;;;;;;;4.90;2.30;;;;;0.10;91519.00;;;;7397658;19;20134;-81
2023/01/16 08:19:22;;;;;;;5.27;2.50;;;;;0.10;91495.00;;;;7393805;19;20184;-80
2023/01/16 08:21:56;;;;;;;4.23;2.50;;;;;0.10;91493.00;;;;7395852;19;20132;-80
2023/01/16 08:24:30;;;;;;;3.00;2.13;;;;;0.20;91497.00;;;;7394731;19;20667;-80
2023/01/16 08:26:57;;;;;;;6.67;2.60;;;;;0.20;91486.00;;;;7394385;19;20149;-80
2023/01/16 08:29:34;;;;;;;3.47;2.30;;;;;0.20;91481.00;;;;7395631;19;20610;-80
2023/01/16 08:32:02;;;;;;;2.93;2.17;;;;;0.30;91475.00;;;;7394021;19;20141;-79
2023/01/16 08:34:36;;;;;;;3.60;2.37;;;;;0.20;91475.00;;;;7393563;19;20216;-81
2023/01/16 08:37:10;;;;;;;3.00;2.00;;;;;0.20;91482.00;;;;7394283;19;20152;-80
2023/01/16 08:39:44;;;;;;;2.60;2.00;;;;;0.30;91471.00;;;;7385717;19;20160;-82
2023/01/16 08:53:39;;;;;;;2.73;2.07;;;;;0.60;91497.00;;;;7395334;19;20149;-80
2023/01/16 08:56:07;;;;;;;3.33;2.30;;;;;0.60;91484.00;;;;7396012;19;20153;-82
2023/01/16 08:58:41;;;;;;;2.70;2.20;;;;;0.70;91467.00;;;;7393250;19;20155;-80
2023/01/16 09:01:16;;;;;;;2.50;1.70;;;;;0.70;91477.00;;;;7394965;19;20160;-80
2023/01/16 09:03:44;;;;;;;3.70;1.80;;;;;0.70;91462.00;;;;7394141;19;20622;-80
2023/01/16 09:06:18;;;;;;;2.67;1.83;;;;;0.80;91459.00;;;;7392683;19;20609;-80
2023/01/16 09:08:45;;;;;;;3.63;1.90;;;;;0.90;91460.00;;;;7392718;19;20179;-82
2023/01/16 09:14:20;;;;;;;2.77;1.60;;;;;1.20;91450.00;;;;7395090;19;20225;-80
2023/01/16 09:16:55;;;;;;;3.03;1.50;;;;;1.30;91450.00;;;;7395137;19;20144;-79
2023/01/16 09:19:29;;;;;;;2.30;1.57;;;;;1.30;91442.00;;;;7391547;19;20227;-79
2023/01/16 09:21:56;;;;;;;1.77;1.40;;;;;1.30;91437.00;;;;7394495;19;20153;-81
2023/01/16 09:24:30;;;;;;;1.40;1.13;;;;;1.30;91431.00;;;;7393424;19;20157;-79
2023/01/16 09:27:09;;;;;;;3.10;1.53;;;;;1.20;91442.00;;;;7392442;19;20151;-80
2023/01/16 09:29:37;;;;;;;1.70;1.50;;;;;1.40;91428.00;;;;7394554;19;20129;-81
2023/01/16 09:32:18;;;;;;;4.20;1.30;;;;;1.40;91422.00;;;;7392279;19;20173;-81
2023/01/16 09:34:46;;;;;;;2.70;1.10;;;;;1.50;91419.00;;;;7392910;19;20148;-81
2023/01/16 09:37:21;;;;;;;1.30;1.20;;;;;1.50;91411.00;;;;7392906;19;20614;-82
2023/01/16 09:39:55;;;;;;;1.53;1.20;;;;;1.50;91405.00;;;;7392740;19;20133;-81
2023/01/16 09:45:42;;;;;;;1.20;1.10;;;;;1.60;91407.00;;;;7392106;19;20629;-80
2023/01/16 09:48:33;;;;;;;3.60;1.50;;;;;1.30;91403.00;;;;7392930;19;20557;-81
2023/01/16 09:51:10;;;;;;;1.13;0.90;;;;;1.20;91397.00;;;;7396549;19;20136;-80
2023/01/16 09:59:43;;;;;;;2.80;1.13;;;;;1.40;91388.00;;;;7387125;19;20149;-79
2023/01/16 10:02:22;;;;;;;1.13;0.80;;;;;1.40;91393.00;;;;7397427;19;20144;-77
2023/01/16 10:04:56;;;;;;;1.07;0.77;;;;;1.30;91388.00;;;;7399973;19;20133;-80
2023/01/16 10:07:42;;;;;;;1.00;0.80;;;;;1.50;91391.00;;;;7399235;19;20174;-80
2023/01/16 10:10:25;;;;;;;2.13;0.70;;;;;1.60;91379.00;;;;7395403;19;20579;-77
2023/01/16 10:13:14;;;;;;;0.70;0.70;;;;;1.50;91374.00;;;;7399286;19;20144;-78
2023/01/16 10:16:12;;;;;;;2.10;0.90;;;;;1.40;91378.00;;;;7399442;19;20150;-79
2023/01/16 10:19:16;;;;;;;1.50;0.93;;;;;1.30;91372.00;;;;7398371;19;20638;-80
2023/01/16 10:21:54;;;;;;;1.73;1.03;;;;;1.40;91370.00;;;;7398146;19;20203;-78
2023/01/16 10:24:46;;;;;;;1.20;0.63;;;;;1.40;91368.00;;;;7398278;19;20149;-81
2023/01/16 10:27:18;;;;;;;0.97;0.67;;;;;1.40;91363.00;;;;7399148;19;20133;-80
2023/01/16 10:29:57;;;;;;;2.30;0.70;;;;;1.30;91349.00;;;;7399979;19;20132;-80
2023/01/16 10:32:29;;;;;;;1.63;1.10;;;;;1.40;91347.00;;;;7397839;19;20161;-77
2023/01/16 10:35:06;;;;;;;1.30;0.90;;;;;1.40;91351.00;;;;7397299;19;20144;-80
2023/01/16 10:37:44;;;;;;;1.73;1.00;;;;;1.40;91344.00;;;;7398505;19;20152;-81
2023/01/16 10:40:27;;;;;;;3.13;0.97;;;;;1.40;91338.00;;;;7396774;19;20152;-81
2023/01/16 10:49:27;;;;;;;1.80;0.87;;;;;1.40;91316.00;;;;7397413;19;20141;-80
2023/01/16 10:52:04;;;;;;;1.00;0.70;;;;;1.50;91317.00;;;;7397450;19;20603;-77
2023/01/16 10:54:40;;;;;;;1.27;0.97;;;;;1.50;91310.00;;;;7397339;19;20627;-78
2023/01/16 10:57:16;;;;;;;2.83;0.83;;;;;1.50;91305.00;;;;7396758;19;20528;-77
2023/01/16 10:59:53;;;;;;;1.50;0.90;;;;;1.50;91303.00;;;;7396237;19;20148;-77
2023/01/16 11:02:40;;;;;;;0.90;0.80;;;;;1.40;91291.00;;;;7395124;19;20626;-78
2023/01/16 11:05:29;;;;;;;1.50;1.00;;;;;1.70;91283.00;;;;7399788;19;20196;-78
2023/01/16 11:08:14;;;;;;;1.47;0.83;;;;;1.80;91271.00;;;;7397279;19;20603;-80
2023/01/16 11:10:55;;;;;;;0.70;0.60;;;;;1.60;91259.00;;;;7394527;19;20158;-80
2023/01/16 11:19:22;;;;;;;1.03;0.80;;;;;1.70;91258.00;;;;7398473;19;20492;-81
2023/01/16 11:22:09;;;;;;;0.73;0.73;;;;;1.40;91234.00;;;;7397873;19;20153;-81
2023/01/16 11:24:39;;;;;;;3.17;0.90;;;;;1.60;91246.00;;;;7397160;19;20164;-80
2023/01/16 11:27:22;;;;;;;0.90;0.80;;;;;1.70;91240.00;;;;7395987;19;20611;-79
2023/01/16 11:29:54;;;;;;;1.27;1.00;;;;;1.60;91235.00;;;;7397224;19;20613;-79
2023/01/16 11:32:29;;;;;;;2.23;0.90;;;;;1.50;91218.00;;;;7396227;19;20196;-79
2023/01/16 11:35:01;;;;;;;1.40;1.10;;;;;1.60;91219.00;;;;7397101;19;20152;-78
2023/01/16 11:37:29;;;;;;;1.17;1.07;;;;;1.70;91202.00;;;;7394728;19;20204;-77
2023/01/16 11:40:05;;;;;;;2.23;1.20;;;;;1.60;91195.00;;;;7394137;19;20503;-79
2023/01/16 11:48:23;;;;;;;4.77;1.30;;;;;1.80;91172.00;;;;7394057;19;21886;-76
2023/01/16 11:50:58;;;;;;;1.43;1.20;;;;;1.60;91179.00;;;;7396540;19;20160;-76
2023/01/16 11:53:34;;;;;;;1.17;1.00;;;;;1.70;91175.00;;;;7394307;19;20614;-75
2023/01/16 11:56:32;;;;;;;2.27;1.20;;;;;1.60;91160.00;;;;7396086;19;20154;-75
2023/01/16 11:59:43;;;;;;;2.03;1.13;;;;;1.80;91151.00;;;;7391262;19;20611;-74
2023/01/16 12:02:50;;;;;;;2.13;1.20;;;;;1.60;91152.00;;;;7389214;19;20255;-74
2023/01/16 12:05:53;;;;;;;1.10;0.90;;;;;1.50;91153.00;;;;7391654;19;20156;-74
2023/01/16 12:08:48;;;;;;;3.37;1.10;;;;;1.20;91136.00;;;;7391717;19;20503;-74
2023/01/16 12:11:43;;;;;;;1.13;0.90;;;;;1.10;91127.00;;;;7391519;19;20680;-73
2023/01/16 12:14:43;;;;;;;1.57;1.30;;;;;1.00;91118.00;;;;7388373;19;20672;-73
2023/01/16 12:17:28;;;;;;;1.77;1.00;;;;;1.20;91103.00;;;;7393231;19;20145;-73
2023/01/16 12:20:08;;;;;;;4.27;1.33;;;;;1.40;91085.00;;;;7395532;19;20469;-73
2023/01/16 12:22:57;;;;;;;1.73;1.20;;;;;1.40;91085.00;;;;7393359;19;20170;-73
2023/01/16 12:25:43;;;;;;;6.67;1.37;;;;;1.40;91079.00;;;;7392612;19;20140;-73
2023/01/16 12:28:54;;;;;;;1.60;1.37;;;;;1.60;91083.00;;;;7393484;19;20460;-73
2023/01/16 12:31:58;;;;;;;1.43;1.20;;;;;1.70;91068.00;;;;7394786;19;20192;-73
2023/01/16 12:35:23;;;;;;;2.43;1.27;;;;;1.90;91074.00;;;;7394927;19;20160;-73
2023/01/16 12:38:25;;;;;;;3.77;1.10;;;;;1.90;91065.00;;;;7393317;19;20177;-73
2023/01/16 12:44:13;;;;;;;1.30;1.20;;;;;2.10;91048.00;;;;7394039;19;20132;-74
2023/01/16 12:46:59;;;;;;;1.30;1.20;;;;;2.20;91065.00;;;;7388620;19;20624;-73
2023/01/16 12:49:43;;;;;;;1.70;1.20;;;;;2.10;91057.00;;;;7392290;19;20623;-73
2023/01/16 12:52:35;;;;;;;1.30;1.20;;;;;2.00;91042.00;;;;7392388;19;20140;-74
2023/01/16 12:55:36;;;;;;;1.47;1.00;;;;;1.90;91039.00;;;;7393631;19;20216;-73
2023/01/16 12:58:21;;;;;;;2.87;1.43;;;;;1.90;91028.00;;;;7392507;19;20231;-73
2023/01/16 13:01:12;;;;;;;3.63;1.57;;;;;2.00;91031.00;;;;7391930;19;20148;-73
2023/01/16 13:04:05;;;;;;;1.30;1.20;;;;;2.10;91026.00;;;;7391001;19;20141;-72
2023/01/16 13:06:55;;;;;;;2.63;1.17;;;;;2.30;91010.00;;;;7392489;19;20495;-72
2023/01/16 13:13:21;;;;;;;1.20;1.10;;;;;2.60;90998.00;;;;7390116;19;20843;-72
2023/01/16 13:16:02;;;;;;;2.17;1.37;;;;;3.00;90972.00;;;;7390582;19;20749;-71
2023/01/16 13:18:53;;;;;;;1.37;1.27;;;;;3.10;90986.00;;;;7388730;19;20137;-72
2023/01/16 13:21:31;;;;;;;1.43;1.33;;;;;3.20;90980.00;;;;7390810;19;20493;-72
2023/01/16 13:24:16;;;;;;;3.30;1.07;;;;;3.10;90973.00;;;;7393285;19;20133;-72
2023/01/16 13:27:02;;;;;;;2.70;1.30;;;;;2.80;90994.00;;;;7398746;19;20536;-74
2023/01/16 13:29:53;;;;;;;1.40;1.20;;;;;2.90;90973.00;;;;7400481;19;20132;-72
2023/01/16 13:32:54;;;;;;;1.53;1.20;;;;;2.70;90967.00;;;;7399075;19;20139;-71
2023/01/16 13:35:27;;;;;;;1.27;1.10;;;;;2.60;90976.00;;;;7400031;19;20121;-73
2023/01/16 13:38:28;;;;;;;2.50;1.10;;;;;2.60;90962.00;;;;7396737;19;20153;-72
2023/01/16 13:41:20;;;;;;;2.40;1.10;;;;;2.80;90957.00;;;;7396044;19;20615;-72
2023/01/16 13:46:46;;;;;;;1.03;0.90;;;;;2.30;90952.00;;;;7393074;19;20149;-72
2023/01/16 13:49:20;;;;;;;0.73;0.60;;;;;2.10;90961.00;;;;7397831;19;20598;-70
2023/01/16 13:51:55;;;;;;;1.07;0.97;;;;;2.00;90969.00;;;;7399130;19;20156;-72
2023/01/16 13:54:41;;;;;;;1.17;1.00;;;;;1.90;90961.00;;;;7397857;19;20140;-71
2023/01/16 13:57:23;;;;;;;2.60;1.13;;;;;1.90;90961.00;;;;7397494;19;20619;-72
2023/01/16 14:00:08;;;;;;;1.30;1.20;;;;;2.00;90953.00;;;;7399202;19;20598;-72
2023/01/16 14:02:59;;;;;;;1.83;1.13;;;;;2.00;90963.00;;;;7395785;19;20133;-73
2023/01/16 14:05:40;;;;;;;1.67;1.20;;;;;1.90;90963.00;;;;7394444;19;20133;-73
2023/01/16 14:09:04;;;;;;;1.60;1.40;;;;;1.80;90960.00;;;;7397485;19;20570;-72
2023/01/16 14:11:46;;;;;;;2.10;1.07;;;;;1.70;90955.00;;;;7398502;19;20136;-73
2023/01/16 14:17:25;;;;;;;2.10;1.30;;;;;1.60;90946.00;;;;7396179;19;20141;-72
2023/01/16 14:20:02;;;;;;;1.50;1.20;;;;;1.80;90931.00;;;;7398662;19;20487;-73
2023/01/16 14:25:19;;;;;;;1.20;1.10;;;;;1.80;90905.00;;;;7397751;19;20221;-73
2023/01/16 14:27:56;;;;;;;1.93;1.40;;;;;1.80;90890.00;;;;7390894;19;20128;-72
2023/01/16 14:30:38;;;;;;;3.73;1.30;;;;;1.80;90883.00;;;;7395427;19;20644;-74